Aviation Digital Data Service (ADDS)

Output produced by METARs form (1050 UTC 20 September 2019)
found at http://aviationweather.gov/metar/data/
 
KSMF 200953Z 33008KT 10SM CLR 13/09 A2990 RMK AO2 SLP126 T01330089
KSMF 200539Z 2006/2106 VRB04KT P6SM SKC 
     FM201800 34012KT P6SM SKC 
     FM210300 32005KT P6SM SKC